createdAt,value
2023-01-02T00:00:03.408Z,83.1
2023-01-02T00:03:03.504Z,83.1
2023-01-02T00:06:03.237Z,83.1
2023-01-02T00:09:03.218Z,83.1
2023-01-02T00:12:03.228Z,83.1
2023-01-02T00:15:03.243Z,83.1
2023-01-02T00:18:03.168Z,83.1
2023-01-02T00:21:03.188Z,83.1
2023-01-02T00:24:03.304Z,83.1
2023-01-02T00:27:03.236Z,83.1
2023-01-02T00:30:03.209Z,83.6
2023-01-02T00:33:03.276Z,83.6
2023-01-02T00:36:03.148Z,83.6
2023-01-02T00:39:03.276Z,83.9
2023-01-02T00:42:03.156Z,84
2023-01-02T00:45:03.255Z,84
2023-01-02T00:48:03.152Z,83.9
2023-01-02T00:51:03.251Z,83.9
2023-01-02T00:54:03.162Z,83.9
2023-01-02T00:57:03.214Z,83.9
2023-01-02T01:00:03.165Z,83.9
2023-01-02T01:03:03.290Z,83.9
2023-01-02T01:06:03.171Z,83.9
2023-01-02T01:09:03.164Z,83.9
2023-01-02T01:12:07.524Z,83.9
2023-01-02T01:15:03.182Z,83.9
2023-01-02T01:18:03.180Z,83.2
2023-01-02T01:21:03.200Z,83.2
2023-01-02T01:24:03.174Z,83.2
2023-01-02T01:27:03.120Z,83.2
2023-01-02T01:30:03.217Z,83.2
2023-01-02T01:33:03.164Z,82.5
2023-01-02T01:36:03.204Z,82.3
2023-01-02T01:39:03.193Z,82.3
2023-01-02T01:42:03.203Z,82.3
2023-01-02T01:45:03.141Z,82.3
2023-01-02T01:48:03.237Z,82.3
2023-01-02T01:51:03.189Z,82.3
2023-01-02T01:54:03.201Z,82.3
2023-01-02T01:57:03.220Z,82.3
2023-01-02T02:00:03.176Z,82.3
2023-01-02T02:03:03.510Z,82.3
2023-01-02T02:06:03.181Z,82.3
2023-01-02T02:09:03.218Z,79.5
2023-01-02T02:12:03.168Z,79.5
2023-01-02T02:15:03.271Z,79.5
2023-01-02T02:18:03.155Z,79.5
2023-01-02T02:21:03.167Z,79.5
2023-01-02T02:24:03.147Z,79.5
2023-01-02T02:27:03.320Z,79.5
2023-01-02T02:30:03.177Z,79.5
2023-01-02T02:33:03.219Z,78.8
2023-01-02T02:36:03.192Z,78.8
2023-01-02T02:39:03.207Z,78.8
2023-01-02T02:42:03.149Z,78.8
2023-01-02T02:45:03.280Z,78.8
2023-01-02T02:48:03.241Z,78.8
2023-01-02T02:51:03.263Z,78.8
2023-01-02T02:54:03.205Z,78.8
2023-01-02T02:57:03.197Z,78.8
2023-01-02T03:00:03.161Z,78.8
2023-01-02T03:03:03.567Z,78.8
2023-01-02T03:06:03.181Z,78.8
2023-01-02T03:09:03.206Z,78.8
2023-01-02T03:12:03.206Z,78.8
2023-01-02T03:15:03.182Z,78.8
2023-01-02T03:18:03.243Z,77
2023-01-02T03:21:03.261Z,77
2023-01-02T03:24:03.214Z,77
2023-01-02T03:27:03.190Z,77
2023-01-02T03:30:03.320Z,77
2023-01-02T03:33:03.190Z,76.6
2023-01-02T03:36:03.221Z,76.6
2023-01-02T03:39:03.208Z,76.6
2023-01-02T03:42:03.196Z,76.6
2023-01-02T03:45:03.231Z,76.6
2023-01-02T03:48:03.268Z,76.6
2023-01-02T03:51:03.215Z,76.6
2023-01-02T03:54:03.186Z,75.2
2023-01-02T03:57:03.133Z,75.2
2023-01-02T04:00:03.204Z,75.2
2023-01-02T04:03:03.294Z,75.2
2023-01-02T04:06:03.160Z,75.2
2023-01-02T04:09:03.272Z,75.2
2023-01-02T04:12:03.195Z,75.2
2023-01-02T04:15:03.241Z,75.2
2023-01-02T04:18:03.228Z,75.2
2023-01-02T04:21:03.239Z,75.2
2023-01-02T04:24:03.291Z,75.2
2023-01-02T04:27:03.246Z,75.2
2023-01-02T04:30:03.197Z,74.5
2023-01-02T04:33:03.223Z,74.5
2023-01-02T04:36:03.128Z,74.5
2023-01-02T04:39:03.182Z,74.5
2023-01-02T04:42:03.179Z,74.5
2023-01-02T04:45:03.243Z,74.5
2023-01-02T04:48:03.233Z,74.5
2023-01-02T04:51:03.245Z,74.5
2023-01-02T04:54:03.224Z,74.5
2023-01-02T04:57:03.139Z,74.5
2023-01-02T05:00:03.404Z,74.5
2023-01-02T05:03:03.357Z,74.5
2023-01-02T05:06:03.271Z,73
2023-01-02T05:09:03.177Z,73
2023-01-02T05:12:03.269Z,73
2023-01-02T05:15:03.185Z,73
2023-01-02T05:18:03.126Z,73
2023-01-02T05:21:03.219Z,73
2023-01-02T05:24:03.159Z,72.2
2023-01-02T05:27:03.213Z,72.2
2023-01-02T05:30:03.179Z,72.2
2023-01-02T05:33:03.249Z,71.8
2023-01-02T05:36:03.185Z,71.8
2023-01-02T05:39:03.247Z,71.8
2023-01-02T05:42:03.155Z,71.8
2023-01-02T05:45:03.201Z,71.8
2023-01-02T05:48:03.160Z,71.8
2023-01-02T05:51:03.232Z,71.8
2023-01-02T05:54:03.167Z,71.8
2023-01-02T05:57:03.171Z,71.8
2023-01-02T06:00:03.277Z,71.8
2023-01-02T06:03:03.466Z,71.8
2023-01-02T06:06:03.156Z,71.8
2023-01-02T06:09:03.169Z,71.8
2023-01-02T06:12:03.335Z,71.8
2023-01-02T06:15:03.253Z,71
2023-01-02T06:18:03.250Z,71
2023-01-02T06:21:03.183Z,71
2023-01-02T06:24:03.285Z,71
2023-01-02T06:27:03.210Z,71
2023-01-02T06:30:03.256Z,71
2023-01-02T06:33:03.200Z,71
2023-01-02T06:36:03.339Z,71
2023-01-02T06:39:03.270Z,71
2023-01-02T06:42:03.198Z,71.4
2023-01-02T06:45:03.229Z,71.4
2023-01-02T06:48:03.228Z,71.4
2023-01-02T06:51:03.146Z,71.4
2023-01-02T06:54:03.451Z,71.4
2023-01-02T06:57:03.215Z,71.4
2023-01-02T07:00:03.247Z,71.4
2023-01-02T07:03:03.354Z,71.7
2023-01-02T07:06:03.212Z,71.4
2023-01-02T07:09:03.169Z,71.4
2023-01-02T07:12:03.158Z,71.4
2023-01-02T07:15:03.230Z,71.5
2023-01-02T07:18:03.196Z,71.5
2023-01-02T07:21:03.198Z,71.5
2023-01-02T07:24:03.375Z,71.5
2023-01-02T07:27:03.184Z,71.5
2023-01-02T07:30:03.303Z,71.5
2023-01-02T07:33:03.204Z,71.5
2023-01-02T07:36:03.288Z,71.5
2023-01-02T07:39:03.210Z,71.5
2023-01-02T07:42:03.278Z,71.5
2023-01-02T07:45:03.302Z,71.5
2023-01-02T07:48:03.273Z,71.5
2023-01-02T07:51:03.277Z,69.8
2023-01-02T07:54:03.255Z,69.8
2023-01-02T07:57:03.284Z,69.8
2023-01-02T08:00:03.397Z,69.8
2023-01-02T08:03:03.277Z,69.8
2023-01-02T08:06:03.260Z,69.8
2023-01-02T08:09:03.282Z,69.8
2023-01-02T08:12:03.391Z,69.8
2023-01-02T08:15:03.241Z,68.5
2023-01-02T08:18:03.279Z,68.5
2023-01-02T08:21:03.298Z,68.5
2023-01-02T08:24:03.259Z,68.5
2023-01-02T08:27:03.282Z,68.5
2023-01-02T08:30:03.237Z,68.5
2023-01-02T08:33:03.344Z,68.5
2023-01-02T08:36:03.188Z,68.5
2023-01-02T08:39:03.248Z,68.5
2023-01-02T08:42:03.356Z,68.5
2023-01-02T08:45:03.411Z,68.5
2023-01-02T08:48:22.125Z,68.5
2023-01-02T08:51:03.280Z,68.5
2023-01-02T08:54:03.203Z,68.5
2023-01-02T08:57:03.247Z,68.5
2023-01-02T09:00:03.321Z,68.5
2023-01-02T09:03:03.802Z,68.5
2023-01-02T09:06:03.249Z,68.5
2023-01-02T09:09:13.247Z,68.2
2023-01-02T09:12:03.301Z,68.4
2023-01-02T09:15:03.235Z,68.4
2023-01-02T09:18:03.310Z,68.4
2023-01-02T09:21:03.324Z,68.4
2023-01-02T09:24:03.331Z,68.4
2023-01-02T09:27:03.286Z,68.4
2023-01-02T09:30:03.327Z,68.4
2023-01-02T09:33:03.212Z,68.4
2023-01-02T09:36:03.315Z,68.4
2023-01-02T09:39:03.350Z,68.4
2023-01-02T09:42:03.253Z,68.4
2023-01-02T09:45:11.405Z,68.4
2023-01-02T09:48:03.287Z,68
2023-01-02T09:51:10.235Z,68
2023-01-02T09:54:03.252Z,68
2023-01-02T09:57:03.322Z,68
2023-01-02T10:00:03.486Z,68
2023-01-02T10:03:10.940Z,68
2023-01-02T10:06:03.306Z,67.9
2023-01-02T10:09:03.388Z,67.9
2023-01-02T10:12:03.235Z,67.9
2023-01-02T10:15:03.686Z,67.9
2023-01-02T10:18:03.279Z,67.9
2023-01-02T10:21:03.346Z,67.9
2023-01-02T10:24:03.202Z,67.9
2023-01-02T10:27:03.306Z,67.9
2023-01-02T10:30:03.256Z,67.9
2023-01-02T10:33:03.214Z,67.9
2023-01-02T10:36:03.286Z,67.9
2023-01-02T10:39:03.301Z,67.9
2023-01-02T10:42:03.223Z,67.9
2023-01-02T10:45:03.308Z,67.9
2023-01-02T10:48:03.267Z,67.9
2023-01-02T10:51:03.293Z,67.9
2023-01-02T10:54:03.282Z,67.9
2023-01-02T10:57:03.269Z,67.5
2023-01-02T11:00:03.381Z,67.6
2023-01-02T11:03:03.475Z,67.6
2023-01-02T11:06:35.469Z,67.6
2023-01-02T11:09:03.258Z,67.6
2023-01-02T11:12:03.315Z,67.6
2023-01-02T11:15:03.278Z,67.6
2023-01-02T11:18:03.329Z,67.6
2023-01-02T11:21:03.343Z,67.6
2023-01-02T11:24:03.301Z,67.6
2023-01-02T11:27:03.299Z,67.6
2023-01-02T11:30:03.410Z,67.6
2023-01-02T11:33:03.384Z,66.9
2023-01-02T11:36:03.268Z,66.9
2023-01-02T11:39:03.377Z,66.9
2023-01-02T11:42:03.223Z,67
2023-01-02T11:45:03.400Z,67
2023-01-02T11:48:03.263Z,70
2023-01-02T11:51:03.288Z,70
2023-01-02T11:54:03.211Z,70
2023-01-02T11:57:03.301Z,72.8
2023-01-02T12:00:03.362Z,72.8
2023-01-02T12:03:03.590Z,72.8
2023-01-02T12:06:03.271Z,72.8
2023-01-02T12:09:03.183Z,72.8
2023-01-02T12:12:03.283Z,75
2023-01-02T12:15:03.332Z,75
2023-01-02T12:18:03.247Z,75
2023-01-02T12:21:03.355Z,75
2023-01-02T12:24:03.300Z,75
2023-01-02T12:27:03.189Z,75
2023-01-02T12:30:03.315Z,75
2023-01-02T12:33:03.355Z,76.3
2023-01-02T12:36:03.309Z,76.3
2023-01-02T12:39:03.232Z,76.3
2023-01-02T12:42:04.935Z,76.3
2023-01-02T12:45:03.373Z,76.3
2023-01-02T12:48:03.207Z,76.3
2023-01-02T12:51:03.222Z,76.3
2023-01-02T12:54:23.285Z,78
2023-01-02T12:57:03.442Z,78
2023-01-02T13:00:03.316Z,78
2023-01-02T13:03:03.476Z,78
2023-01-02T13:06:03.255Z,78
2023-01-02T13:09:03.287Z,78
2023-01-02T13:12:03.219Z,78.6
2023-01-02T13:15:03.354Z,78.6
2023-01-02T13:18:03.249Z,78.6
2023-01-02T13:21:03.371Z,78.6
2023-01-02T13:24:03.268Z,78.6
2023-01-02T13:27:03.240Z,79.1
2023-01-02T13:30:03.335Z,79.1
2023-01-02T13:33:03.258Z,79.1
2023-01-02T13:36:03.255Z,79.1
2023-01-02T13:39:03.345Z,79.1
2023-01-02T13:42:11.534Z,79.1
2023-01-02T13:45:03.332Z,79.1
2023-01-02T13:48:03.344Z,78.9
2023-01-02T13:51:03.238Z,78.9
2023-01-02T13:54:03.220Z,78.9
2023-01-02T13:57:03.238Z,78.9
2023-01-02T14:00:03.468Z,78.9
2023-01-02T14:03:03.659Z,78.9
2023-01-02T14:06:03.498Z,78.2
2023-01-02T14:09:03.242Z,78.2
2023-01-02T14:12:03.261Z,78.2
2023-01-02T14:15:03.221Z,78.2
2023-01-02T14:18:03.259Z,78.2
2023-01-02T14:21:03.223Z,78.2
2023-01-02T14:24:24.378Z,78.2
2023-01-02T14:27:03.343Z,78
2023-01-02T14:30:03.298Z,78
2023-01-02T14:33:03.319Z,78
2023-01-02T14:36:03.270Z,78
2023-01-02T14:39:03.326Z,78
2023-01-02T14:42:03.211Z,77.5
2023-01-02T14:45:03.324Z,77.5
2023-01-02T14:48:03.196Z,77.5
2023-01-02T14:51:03.312Z,77.5
2023-01-02T14:54:03.284Z,77.5
2023-01-02T14:57:03.284Z,77.5
2023-01-02T15:00:03.311Z,75.3
2023-01-02T15:03:03.864Z,75.3
2023-01-02T15:06:03.302Z,75.3
2023-01-02T15:09:03.193Z,75.3
2023-01-02T15:12:03.304Z,74.9
2023-01-02T15:15:03.354Z,74.9
2023-01-02T15:18:03.215Z,74.9
2023-01-02T15:21:03.228Z,74.9
2023-01-02T15:24:03.200Z,74.9
2023-01-02T15:27:03.144Z,74.9
2023-01-02T15:30:03.228Z,74.9
2023-01-02T15:33:03.204Z,75.1
2023-01-02T15:36:03.264Z,75.1
2023-01-02T15:39:03.247Z,75.1
2023-01-02T15:42:12.040Z,75.7
2023-01-02T15:45:03.274Z,75.7
2023-01-02T15:48:03.219Z,75.7
2023-01-02T15:51:03.248Z,75.7
2023-01-02T15:54:05.946Z,75.7
2023-01-02T15:57:03.288Z,75.7
2023-01-02T16:00:04.102Z,75.7
2023-01-02T16:03:03.924Z,77.2
2023-01-02T16:06:03.247Z,77.2
2023-01-02T16:09:03.280Z,77.2
2023-01-02T16:12:03.373Z,77.2
2023-01-02T16:15:03.303Z,77.2
2023-01-02T16:18:03.218Z,77.2
2023-01-02T16:21:03.205Z,77.2
2023-01-02T16:24:03.269Z,77.2
2023-01-02T16:27:03.176Z,77.2
2023-01-02T16:30:03.239Z,77.2
2023-01-02T16:33:03.278Z,77.9
2023-01-02T16:36:03.843Z,77.9
2023-01-02T16:39:03.313Z,77.9
2023-01-02T16:42:03.511Z,77.9
2023-01-02T16:45:03.347Z,77.8
2023-01-02T16:48:03.216Z,77.8
2023-01-02T16:51:03.285Z,77.8
2023-01-02T16:54:03.381Z,77.8
2023-01-02T16:57:03.239Z,77.8
2023-01-02T17:00:03.260Z,77.8
2023-01-02T17:03:03.485Z,77.8
2023-01-02T17:06:05.546Z,77.8
2023-01-02T17:09:03.247Z,77.6
2023-01-02T17:12:03.342Z,77.6
2023-01-02T17:15:03.306Z,77.6
2023-01-02T17:18:03.457Z,76
2023-01-02T17:21:03.171Z,76
2023-01-02T17:24:03.241Z,76
2023-01-02T17:27:03.343Z,74.9
2023-01-02T17:30:03.411Z,74.9
2023-01-02T17:33:06.939Z,74.9
2023-01-02T17:36:03.348Z,74.9
2023-01-02T17:39:03.288Z,74.9
2023-01-02T17:42:03.257Z,75.4
2023-01-02T17:45:03.244Z,75.4
2023-01-02T17:48:17.308Z,75.4
2023-01-02T17:51:03.263Z,75.4
2023-01-02T17:54:03.159Z,75.4
2023-01-02T17:57:03.281Z,75.4
2023-01-02T18:00:03.294Z,75.4
2023-01-02T18:03:03.655Z,76.6
2023-01-02T18:06:03.210Z,76.6
2023-01-02T18:09:03.261Z,76.6
2023-01-02T18:12:03.237Z,76.6
2023-01-02T18:15:03.256Z,76.6
2023-01-02T18:18:03.215Z,76.6
2023-01-02T18:21:03.395Z,77.5
2023-01-02T18:24:03.175Z,77.5
2023-01-02T18:27:03.253Z,77.5
2023-01-02T18:30:03.356Z,77.5
2023-01-02T18:33:03.184Z,77.5
2023-01-02T18:36:03.277Z,78.3
2023-01-02T18:39:03.250Z,78.3
2023-01-02T18:42:03.272Z,78.3
2023-01-02T18:45:03.263Z,78.3
2023-01-02T18:48:03.331Z,78.3
2023-01-02T18:51:03.265Z,78.3
2023-01-02T18:54:03.187Z,78.2
2023-01-02T18:57:03.208Z,78.2
2023-01-02T19:00:03.463Z,78.2
2023-01-02T19:03:03.442Z,78.2
2023-01-02T19:06:03.368Z,78
2023-01-02T19:09:03.205Z,78
2023-01-02T19:12:03.287Z,78
2023-01-02T19:15:03.403Z,78.4
2023-01-02T19:18:03.225Z,78.4
2023-01-02T19:21:03.182Z,78.4
2023-01-02T19:24:03.191Z,78.4
2023-01-02T19:27:03.285Z,78.4
2023-01-02T19:30:03.211Z,78.4
2023-01-02T19:33:03.317Z,78.4
2023-01-02T19:36:03.251Z,78.4
2023-01-02T19:39:03.251Z,78.4
2023-01-02T19:42:03.207Z,77.6
2023-01-02T19:45:03.432Z,77.6
2023-01-02T19:48:03.195Z,77.6
2023-01-02T19:51:03.252Z,77.6
2023-01-02T19:54:07.000Z,77.6
2023-01-02T19:57:03.189Z,78
2023-01-02T20:00:03.214Z,78
2023-01-02T20:03:03.924Z,78
2023-01-02T20:06:03.123Z,78
2023-01-02T20:09:03.280Z,78
2023-01-02T20:12:10.097Z,78
2023-01-02T20:15:03.386Z,78
2023-01-02T20:18:11.059Z,78.6
2023-01-02T20:21:03.344Z,78.6
2023-01-02T20:24:03.274Z,78.5
2023-01-02T20:27:03.218Z,78.5
2023-01-02T20:30:03.291Z,78.5
2023-01-02T20:33:03.204Z,78.5
2023-01-02T20:36:05.862Z,78.5
2023-01-02T20:39:03.232Z,78.3
2023-01-02T20:42:05.517Z,78.3
2023-01-02T20:45:03.330Z,78.3
2023-01-02T20:48:03.304Z,78.3
2023-01-02T20:51:03.184Z,78.3
2023-01-02T20:54:03.284Z,79.5
2023-01-02T20:57:03.495Z,79.5
2023-01-02T21:00:03.693Z,79.5
2023-01-02T21:03:03.819Z,79.5
2023-01-02T21:06:03.217Z,79.5
2023-01-02T21:09:03.270Z,79.5
2023-01-02T21:12:03.300Z,79.5
2023-01-02T21:15:03.251Z,82
2023-01-02T21:18:03.214Z,82
2023-01-02T21:21:03.247Z,82.2
2023-01-02T21:24:03.209Z,82.2
2023-01-02T21:27:05.460Z,82.2
2023-01-02T21:30:03.271Z,82.2
2023-01-02T21:33:03.203Z,82.2
2023-01-02T21:36:03.259Z,82.2
2023-01-02T21:39:03.343Z,82.2
2023-01-02T21:42:03.272Z,82.6
2023-01-02T21:45:03.767Z,82.6
2023-01-02T21:48:03.377Z,82.6
2023-01-02T21:51:03.406Z,82.6
2023-01-02T21:54:03.264Z,82.6
2023-01-02T21:57:03.295Z,82.6
2023-01-02T22:00:03.460Z,82.6
2023-01-02T22:03:03.532Z,82.6
2023-01-02T22:06:03.372Z,82
2023-01-02T22:09:03.225Z,82
2023-01-02T22:12:03.274Z,82
2023-01-02T22:15:03.315Z,82
2023-01-02T22:18:03.346Z,81.4
2023-01-02T22:21:03.178Z,81.4
2023-01-02T22:24:03.245Z,81.4
2023-01-02T22:27:03.209Z,81.4
2023-01-02T22:30:37.066Z,81.4
2023-01-02T22:33:03.257Z,81.4
2023-01-02T22:36:03.212Z,81.7
2023-01-02T22:39:30.932Z,81.7
2023-01-02T22:42:03.146Z,81.7
2023-01-02T22:45:03.214Z,81.7
2023-01-02T22:48:03.202Z,81.7
2023-01-02T22:51:03.294Z,81.3
2023-01-02T22:54:03.264Z,81.3
2023-01-02T22:57:03.255Z,81.3
2023-01-02T23:00:04.347Z,81.3
2023-01-02T23:03:03.422Z,81.3
2023-01-02T23:06:03.233Z,81.2
2023-01-02T23:09:03.261Z,81.1
2023-01-02T23:12:03.179Z,81.1
2023-01-02T23:15:03.248Z,81.1
2023-01-02T23:18:03.210Z,81.1
2023-01-02T23:21:03.239Z,81.1
2023-01-02T23:24:03.267Z,81.1
2023-01-02T23:27:03.231Z,81.1
2023-01-02T23:30:03.277Z,81.1
2023-01-02T23:33:03.291Z,81.1
2023-01-02T23:36:03.235Z,81.1
2023-01-02T23:39:03.218Z,81.1
2023-01-02T23:42:03.214Z,80.8
2023-01-02T23:45:03.333Z,80.8
2023-01-02T23:48:03.406Z,80.8
2023-01-02T23:51:03.246Z,80.8
2023-01-02T23:54:03.221Z,80.8
2023-01-02T23:57:03.240Z,80.8
